createdAt,value
2019-03-16T00:01:56.485Z,7.93
2019-03-16T00:04:15.052Z,7.86
2019-03-16T00:06:41.706Z,7.74
2019-03-16T00:09:08.443Z,7.94
2019-03-16T00:11:34.881Z,7.89
2019-03-16T00:14:01.310Z,7.70
2019-03-16T00:16:27.951Z,7.77
2019-03-16T00:18:54.476Z,7.78
2019-03-16T00:21:21.021Z,7.28
2019-03-16T00:23:47.463Z,7.21
2019-03-16T00:26:14.197Z,7.58
2019-03-16T00:28:40.713Z,7.67
2019-03-16T00:31:07.368Z,7.81
2019-03-16T00:33:33.804Z,7.79
2019-03-16T00:36:00.340Z,7.71
2019-03-16T00:38:26.775Z,7.57
2019-03-16T00:40:53.309Z,7.58
2019-03-16T00:43:19.741Z,7.49
2019-03-16T00:45:46.276Z,7.64
2019-03-16T00:48:12.710Z,7.81
2019-03-16T00:50:39.145Z,7.75
2019-03-16T00:53:05.579Z,7.69
2019-03-16T00:55:32.117Z,7.58
2019-03-16T00:57:58.653Z,7.67
2019-03-16T01:00:25.188Z,7.73
2019-03-16T01:02:51.727Z,7.64
2019-03-16T01:05:19.656Z,7.66
2019-03-16T01:07:47.282Z,7.61
2019-03-16T01:10:14.965Z,7.54
2019-03-16T01:12:42.734Z,7.68
2019-03-16T01:15:11.463Z,7.83
2019-03-16T01:17:38.416Z,7.78
2019-03-16T01:20:08.134Z,7.77
2019-03-16T01:22:34.664Z,7.93
2019-03-16T01:25:01.144Z,7.79
2019-03-16T01:27:27.633Z,7.76
2019-03-16T01:29:54.269Z,7.92
2019-03-16T01:32:20.807Z,7.63
2019-03-16T01:34:47.649Z,7.57
2019-03-16T01:37:14.083Z,7.54
2019-03-16T01:39:40.619Z,7.60
2019-03-16T01:42:07.049Z,7.47
2019-03-16T01:44:33.671Z,7.55
2019-03-16T01:47:00.223Z,7.57
2019-03-16T01:49:26.656Z,7.67
2019-03-16T01:51:53.092Z,7.29
2019-03-16T01:54:19.509Z,6.83
2019-03-16T01:56:46.059Z,7.15
2019-03-16T01:59:12.491Z,7.13
2019-03-16T02:01:39.232Z,7.17
2019-03-16T02:04:05.668Z,7.06
2019-03-16T02:06:32.203Z,7.14
2019-03-16T02:08:58.635Z,7.25
2019-03-16T02:11:25.083Z,7.09
2019-03-16T02:13:51.605Z,7.27
2019-03-16T02:16:18.142Z,7.36
2019-03-16T02:18:44.575Z,7.27
2019-03-16T02:21:11.110Z,7.21
2019-03-16T02:23:37.543Z,7.36
2019-03-16T02:26:04.183Z,7.29
2019-03-16T02:28:30.620Z,7.14
2019-03-16T02:30:57.668Z,7.34
2019-03-16T02:33:24.203Z,7.23
2019-03-16T02:35:51.070Z,7.14
2019-03-16T02:38:17.482Z,6.98
2019-03-16T02:40:43.918Z,7.01
2019-03-16T02:43:10.454Z,6.95
2019-03-16T02:45:36.983Z,6.69
2019-03-16T02:48:03.402Z,6.87
2019-03-16T02:50:29.849Z,6.90
2019-03-16T02:52:56.386Z,6.81
2019-03-16T02:55:22.921Z,6.86
2019-03-16T02:57:49.356Z,6.80
2019-03-16T03:00:15.795Z,6.88
2019-03-16T03:02:42.429Z,6.87
2019-03-16T03:05:09.393Z,6.79
2019-03-16T03:07:36.011Z,6.99
2019-03-16T03:10:12.962Z,6.87
2019-03-16T03:12:39.428Z,6.88
2019-03-16T03:15:07.087Z,6.88
2019-03-16T03:17:33.520Z,6.62
2019-03-16T03:19:59.954Z,6.90
2019-03-16T03:22:28.274Z,6.84
2019-03-16T03:24:54.872Z,6.73
2019-03-16T03:27:21.301Z,6.88
2019-03-16T03:29:47.950Z,6.75
2019-03-16T03:32:14.483Z,6.77
2019-03-16T03:34:41.066Z,6.80
2019-03-16T03:37:07.551Z,6.63
2019-03-16T03:39:34.084Z,6.62
2019-03-16T03:42:00.721Z,6.73
2019-03-16T03:44:27.154Z,6.60
2019-03-16T03:46:53.588Z,6.46
2019-03-16T03:49:20.025Z,6.43
2019-03-16T03:51:46.764Z,6.29
2019-03-16T03:54:13.302Z,5.88
2019-03-16T03:56:39.835Z,6.23
2019-03-16T03:59:06.473Z,6.31
2019-03-16T04:01:32.911Z,6.11
2019-03-16T04:04:14.284Z,5.98
2019-03-16T04:06:28.032Z,6.04
2019-03-16T04:08:54.461Z,6.00
2019-03-16T04:11:21.314Z,6.06
2019-03-16T04:13:47.840Z,6.02
2019-03-16T04:16:14.382Z,6.13
2019-03-16T04:18:41.117Z,6.09
2019-03-16T04:21:07.550Z,5.89
2019-03-16T04:23:33.982Z,5.75
2019-03-16T04:26:00.519Z,5.85
2019-03-16T04:28:26.951Z,5.84
2019-03-16T04:30:54.819Z,5.88
2019-03-16T04:33:21.356Z,5.79
2019-03-16T04:35:47.892Z,5.79
2019-03-16T04:38:14.323Z,5.77
2019-03-16T04:40:40.762Z,5.66
2019-03-16T04:43:07.295Z,5.74
2019-03-16T04:45:33.831Z,5.65
2019-03-16T04:48:00.364Z,6.03
2019-03-16T04:50:26.799Z,5.98
2019-03-16T04:52:53.267Z,5.83
2019-03-16T04:55:19.871Z,5.83
2019-03-16T04:57:46.306Z,5.70
2019-03-16T05:00:13.563Z,5.71
2019-03-16T05:02:40.100Z,5.75
2019-03-16T05:05:07.042Z,5.84
2019-03-16T05:07:33.475Z,5.68
2019-03-16T05:09:59.909Z,5.53
2019-03-16T05:12:26.442Z,5.61
2019-03-16T05:14:52.979Z,5.60
2019-03-16T05:17:19.412Z,5.58
2019-03-16T05:19:45.844Z,5.55
2019-03-16T05:22:12.277Z,5.49
2019-03-16T05:24:39.120Z,5.50
2019-03-16T05:27:05.556Z,5.44
2019-03-16T05:29:32.094Z,5.49
2019-03-16T05:31:58.732Z,5.39
2019-03-16T05:34:25.576Z,5.46
2019-03-16T05:36:52.004Z,5.39
2019-03-16T05:39:18.439Z,5.37
2019-03-16T05:41:44.870Z,5.21
2019-03-16T05:44:11.409Z,5.37
2019-03-16T05:46:37.945Z,5.29
2019-03-16T05:49:04.430Z,5.31
2019-03-16T05:51:31.015Z,5.19
2019-03-16T05:53:57.551Z,5.27
2019-03-16T05:56:24.087Z,5.24
2019-03-16T05:58:50.625Z,5.27
2019-03-16T06:01:17.056Z,5.47
2019-03-16T06:03:43.596Z,5.34
2019-03-16T06:06:10.129Z,5.44
2019-03-16T06:08:36.664Z,5.41
2019-03-16T06:11:03.097Z,5.42
2019-03-16T06:13:29.532Z,5.42
2019-03-16T06:15:56.375Z,5.44
2019-03-16T06:18:46.094Z,5.47
2019-03-16T06:21:12.691Z,5.47
2019-03-16T06:23:39.233Z,5.45
2019-03-16T06:26:07.607Z,5.41
2019-03-16T06:28:34.144Z,5.40
2019-03-16T06:31:00.576Z,5.34
2019-03-16T06:33:27.009Z,5.39
2019-03-16T06:35:53.649Z,5.38
2019-03-16T06:38:20.082Z,5.36
2019-03-16T06:40:46.518Z,5.34
2019-03-16T06:43:12.950Z,5.48
2019-03-16T06:45:39.487Z,5.55
2019-03-16T06:48:06.023Z,5.59
2019-03-16T06:50:32.458Z,5.76
2019-03-16T06:52:58.996Z,5.69
2019-03-16T06:55:25.526Z,5.67
2019-03-16T06:57:51.961Z,5.81
2019-03-16T07:00:18.397Z,5.94
2019-03-16T07:02:44.931Z,6.05
2019-03-16T07:05:12.388Z,6.09
2019-03-16T07:07:40.715Z,6.14
2019-03-16T07:10:11.149Z,6.42
2019-03-16T07:12:37.628Z,6.51
2019-03-16T07:15:07.676Z,6.61
2019-03-16T07:17:34.262Z,6.46
2019-03-16T07:20:01.026Z,6.55
2019-03-16T07:22:27.665Z,6.61
2019-03-16T07:24:54.305Z,6.50
2019-03-16T07:27:26.016Z,6.76
2019-03-16T07:29:49.160Z,6.99
2019-03-16T07:32:15.647Z,6.95
2019-03-16T07:34:42.184Z,6.93
2019-03-16T07:37:09.538Z,6.99
2019-03-16T07:39:35.974Z,7.36
2019-03-16T07:42:02.409Z,7.58
2019-03-16T07:44:28.839Z,7.04
2019-03-16T07:46:55.377Z,7.25
2019-03-16T07:49:21.809Z,7.27
2019-03-16T07:51:48.344Z,7.42
2019-03-16T07:54:14.764Z,7.61
2019-03-16T07:56:41.314Z,7.75
2019-03-16T07:59:07.755Z,7.66
2019-03-16T08:01:34.181Z,7.56
2019-03-16T08:04:00.718Z,7.83
2019-03-16T08:06:27.253Z,7.49
2019-03-16T08:08:53.694Z,7.48
2019-03-16T08:11:20.329Z,7.80
2019-03-16T08:13:46.762Z,7.77
2019-03-16T08:16:13.293Z,7.76
2019-03-16T08:18:39.729Z,8.01
2019-03-16T08:21:06.631Z,7.74
2019-03-16T08:23:33.107Z,8.11
2019-03-16T08:25:59.643Z,8.20
2019-03-16T08:28:28.431Z,8.30
2019-03-16T08:30:56.855Z,8.04
2019-03-16T08:33:23.243Z,8.22
2019-03-16T08:35:49.782Z,8.20
2019-03-16T08:38:16.519Z,8.21
2019-03-16T08:40:42.956Z,8.44
2019-03-16T08:43:09.389Z,8.25
2019-03-16T08:45:35.922Z,8.48
2019-03-16T08:48:02.738Z,8.54
2019-03-16T08:50:36.673Z,8.53
2019-03-16T08:53:03.461Z,8.23
2019-03-16T08:55:30.056Z,8.53
2019-03-16T08:58:05.650Z,8.76
2019-03-16T09:00:24.867Z,8.81
2019-03-16T09:02:51.301Z,8.41
2019-03-16T09:05:17.846Z,8.87
2019-03-16T09:07:44.382Z,8.78
2019-03-16T09:10:10.993Z,8.91
2019-03-16T09:12:39.596Z,8.98
2019-03-16T09:15:11.953Z,8.95
2019-03-16T09:17:52.358Z,9.10
2019-03-16T09:20:16.814Z,8.40
2019-03-16T09:22:43.453Z,8.83
2019-03-16T09:25:11.636Z,9.03
2019-03-16T09:27:38.061Z,8.70
2019-03-16T09:30:08.078Z,9.15
2019-03-16T09:32:34.616Z,9.32
2019-03-16T09:35:01.151Z,9.35
2019-03-16T09:37:27.890Z,9.35
2019-03-16T09:39:54.734Z,9.51
2019-03-16T09:42:21.335Z,9.51
2019-03-16T09:44:49.620Z,9.70
2019-03-16T09:47:27.041Z,9.49
2019-03-16T09:49:56.649Z,9.56
2019-03-16T09:52:32.299Z,9.94
2019-03-16T09:54:58.833Z,9.57
2019-03-16T09:57:25.368Z,9.83
2019-03-16T09:59:51.910Z,10.00
2019-03-16T10:02:18.799Z,10.00
2019-03-16T10:04:45.388Z,9.89
2019-03-16T10:07:11.926Z,10.05
2019-03-16T10:09:38.466Z,10.18
2019-03-16T10:12:05.302Z,10.35
2019-03-16T10:14:31.843Z,10.31
2019-03-16T10:16:58.374Z,10.10
2019-03-16T10:19:24.918Z,10.43
2019-03-16T10:21:51.549Z,10.26
2019-03-16T10:24:18.086Z,10.42
2019-03-16T10:26:44.626Z,10.24
2019-03-16T10:29:11.156Z,10.38
2019-03-16T10:31:37.691Z,10.38
2019-03-16T10:34:04.227Z,10.42
2019-03-16T10:36:30.764Z,10.73
2019-03-16T10:38:57.299Z,10.75
2019-03-16T10:41:24.144Z,10.99
2019-03-16T10:43:50.679Z,10.95
2019-03-16T10:46:17.217Z,10.80
2019-03-16T10:48:43.750Z,11.00
2019-03-16T10:51:10.396Z,11.33
2019-03-16T10:53:36.940Z,11.31
2019-03-16T10:56:03.459Z,11.35
2019-03-16T10:58:30.454Z,11.31
2019-03-16T11:00:56.940Z,11.54
2019-03-16T11:03:23.477Z,11.66
2019-03-16T11:05:50.016Z,11.68
2019-03-16T11:08:16.549Z,11.76
2019-03-16T11:10:42.985Z,11.84
2019-03-16T11:13:09.518Z,11.89
2019-03-16T11:15:37.794Z,11.86
2019-03-16T11:18:04.227Z,11.68
2019-03-16T11:20:30.765Z,11.81
2019-03-16T11:22:57.199Z,11.88
2019-03-16T11:25:23.736Z,12.15
2019-03-16T11:27:50.274Z,12.33
2019-03-16T11:30:18.580Z,12.27
2019-03-16T11:32:45.085Z,12.24
2019-03-16T11:35:11.752Z,11.80
2019-03-16T11:37:38.360Z,12.15
2019-03-16T11:40:16.266Z,12.34
2019-03-16T11:42:43.107Z,12.53
2019-03-16T11:45:10.963Z,12.51
2019-03-16T11:47:37.408Z,12.46
2019-03-16T11:50:06.326Z,12.30
2019-03-16T11:52:34.019Z,12.35
2019-03-16T11:55:00.598Z,12.48
2019-03-16T11:57:27.030Z,12.71
2019-03-16T11:59:53.463Z,12.89
2019-03-16T12:02:20.000Z,12.62
2019-03-16T12:04:46.543Z,12.85
2019-03-16T12:07:13.071Z,12.76
2019-03-16T12:09:39.506Z,13.18
2019-03-16T12:12:06.042Z,12.77
2019-03-16T12:14:32.577Z,13.03
2019-03-16T12:16:59.010Z,12.80
2019-03-16T12:19:25.444Z,12.66
2019-03-16T12:21:52.494Z,12.69
2019-03-16T12:24:19.029Z,12.85
2019-03-16T12:26:45.565Z,12.52
2019-03-16T12:29:11.997Z,12.82
2019-03-16T12:31:38.692Z,12.94
2019-03-16T12:34:05.174Z,13.02
2019-03-16T12:36:31.708Z,12.99
2019-03-16T12:38:58.140Z,13.02
2019-03-16T12:41:24.582Z,12.85
2019-03-16T12:43:51.315Z,13.34
2019-03-16T12:46:19.594Z,13.15
2019-03-16T12:48:46.026Z,13.22
2019-03-16T12:51:12.669Z,13.15
2019-03-16T12:53:39.611Z,13.14
2019-03-16T12:56:06.425Z,13.49
2019-03-16T12:58:36.461Z,13.43
2019-03-16T13:01:03.213Z,13.62
2019-03-16T13:03:29.746Z,13.56
2019-03-16T13:05:56.282Z,13.46
2019-03-16T13:08:22.828Z,13.72
2019-03-16T13:10:49.237Z,13.87
2019-03-16T13:13:16.097Z,13.99
2019-03-16T13:15:42.634Z,13.71
2019-03-16T13:18:09.065Z,13.65
2019-03-16T13:20:35.911Z,13.69
2019-03-16T13:23:02.660Z,13.97
2019-03-16T13:25:29.286Z,14.18
2019-03-16T13:27:55.823Z,14.34
2019-03-16T13:30:22.358Z,14.36
2019-03-16T13:32:48.791Z,14.56
2019-03-16T13:35:15.345Z,14.76
2019-03-16T13:37:42.071Z,14.69
2019-03-16T13:40:14.250Z,15.15
2019-03-16T13:42:42.504Z,15.40
2019-03-16T13:45:11.159Z,14.86
2019-03-16T13:47:37.944Z,15.14
2019-03-16T13:50:16.029Z,15.46
2019-03-16T13:52:42.896Z,15.78
2019-03-16T13:55:09.649Z,15.31
2019-03-16T13:57:36.169Z,15.36
2019-03-16T14:00:11.791Z,15.20
2019-03-16T14:02:34.889Z,15.65
2019-03-16T14:05:01.414Z,15.55
2019-03-16T14:07:28.454Z,15.52
2019-03-16T14:09:55.196Z,15.71
2019-03-16T14:12:21.632Z,15.81
2019-03-16T14:14:48.578Z,16.07
2019-03-16T14:17:16.442Z,16.13
2019-03-16T14:19:42.915Z,15.78
2019-03-16T14:22:09.571Z,15.93
2019-03-16T14:24:36.151Z,16.28
2019-03-16T14:27:02.994Z,16.55
2019-03-16T14:29:29.545Z,16.39
2019-03-16T14:31:56.067Z,16.69
2019-03-16T14:34:22.500Z,16.72
2019-03-16T14:36:49.035Z,16.95
2019-03-16T14:39:15.572Z,16.41
2019-03-16T14:41:42.006Z,16.39
2019-03-16T14:44:08.438Z,16.64
2019-03-16T14:46:35.287Z,16.80
2019-03-16T14:49:01.716Z,17.12
2019-03-16T14:51:28.150Z,16.87
2019-03-16T14:53:54.587Z,16.79
2019-03-16T14:56:21.120Z,16.75
2019-03-16T14:58:47.555Z,17.02
2019-03-16T15:01:14.091Z,17.14
2019-03-16T15:03:40.523Z,17.39
2019-03-16T15:06:08.608Z,16.91
2019-03-16T15:08:35.134Z,17.31
2019-03-16T15:11:01.668Z,17.26
2019-03-16T15:13:28.134Z,17.16
2019-03-16T15:15:58.683Z,17.27
2019-03-16T15:18:25.164Z,17.65
2019-03-16T15:20:51.911Z,17.34
2019-03-16T15:23:18.340Z,17.70
2019-03-16T15:25:44.878Z,17.90
2019-03-16T15:28:11.308Z,17.11
2019-03-16T15:30:49.762Z,17.64
2019-03-16T15:33:06.125Z,17.80
2019-03-16T15:35:32.656Z,18.43
2019-03-16T15:37:59.198Z,18.42
2019-03-16T15:40:26.856Z,17.59
2019-03-16T15:42:53.296Z,18.23
2019-03-16T15:45:28.021Z,18.27
2019-03-16T15:47:54.558Z,18.39
2019-03-16T15:50:20.994Z,17.97
2019-03-16T15:52:47.426Z,18.36
2019-03-16T15:55:13.969Z,17.85
2019-03-16T15:57:42.484Z,17.92
2019-03-16T16:00:15.027Z,18.25
2019-03-16T16:02:41.652Z,17.91
2019-03-16T16:05:08.497Z,18.10
2019-03-16T16:07:35.530Z,18.16
2019-03-16T16:10:04.348Z,18.47
2019-03-16T16:12:30.868Z,18.12
2019-03-16T16:14:57.340Z,17.97
2019-03-16T16:17:24.351Z,17.83
2019-03-16T16:19:51.092Z,18.04
2019-03-16T16:22:17.838Z,17.98
2019-03-16T16:24:44.370Z,18.43
2019-03-16T16:27:10.909Z,18.52
2019-03-16T16:29:37.646Z,17.76
2019-03-16T16:32:04.083Z,18.02
2019-03-16T16:34:30.614Z,17.60
2019-03-16T16:36:57.047Z,17.90
2019-03-16T16:39:23.482Z,18.03
2019-03-16T16:41:50.118Z,17.38
2019-03-16T16:44:16.552Z,17.31
2019-03-16T16:46:43.089Z,17.83
2019-03-16T16:49:09.624Z,18.10
2019-03-16T16:51:36.056Z,18.12
2019-03-16T16:54:02.593Z,17.89
2019-03-16T16:56:29.173Z,18.13
2019-03-16T16:58:55.666Z,18.21
2019-03-16T17:01:29.158Z,17.27
2019-03-16T17:03:50.477Z,18.02
2019-03-16T17:06:17.015Z,17.77
2019-03-16T17:08:43.449Z,16.98
2019-03-16T17:11:09.880Z,16.97
2019-03-16T17:13:36.520Z,16.60
2019-03-16T17:16:03.157Z,16.29
2019-03-16T17:18:30.001Z,16.04
2019-03-16T17:20:58.689Z,16.30
2019-03-16T17:23:25.120Z,16.15
2019-03-16T17:25:51.658Z,15.76
2019-03-16T17:28:18.094Z,15.82
2019-03-16T17:30:44.631Z,15.98
2019-03-16T17:33:11.167Z,15.99
2019-03-16T17:35:38.052Z,15.52
2019-03-16T17:38:04.646Z,15.61
2019-03-16T17:40:31.181Z,15.17
2019-03-16T17:42:57.715Z,14.75
2019-03-16T17:45:24.457Z,14.49
2019-03-16T17:47:50.892Z,14.30
2019-03-16T17:50:17.437Z,13.52
2019-03-16T17:52:43.961Z,13.49
2019-03-16T17:55:11.935Z,13.70
2019-03-16T17:57:38.467Z,13.58
2019-03-16T18:00:19.062Z,13.29
2019-03-16T18:02:51.637Z,13.17
2019-03-16T18:05:14.254Z,13.18
2019-03-16T18:07:40.893Z,13.05
2019-03-16T18:10:12.036Z,12.95
2019-03-16T18:12:39.703Z,12.66
2019-03-16T18:15:12.031Z,12.63
2019-03-16T18:17:38.825Z,12.64
2019-03-16T18:20:08.774Z,12.87
2019-03-16T18:22:35.265Z,12.72
2019-03-16T18:25:01.904Z,12.62
2019-03-16T18:27:28.464Z,12.53
2019-03-16T18:29:54.973Z,12.72
2019-03-16T18:32:21.410Z,12.61
2019-03-16T18:34:47.942Z,12.47
2019-03-16T18:37:14.375Z,12.00
2019-03-16T18:39:40.913Z,12.45
2019-03-16T18:42:08.676Z,12.58
2019-03-16T18:44:35.214Z,12.75
2019-03-16T18:47:01.768Z,12.50
2019-03-16T18:49:28.490Z,12.34
2019-03-16T18:51:54.923Z,12.29
2019-03-16T18:54:21.459Z,12.00
2019-03-16T18:56:47.994Z,12.08
2019-03-16T18:59:14.427Z,12.12
2019-03-16T19:01:40.863Z,12.13
2019-03-16T19:04:07.294Z,12.38
2019-03-16T19:06:34.368Z,12.38
2019-03-16T19:09:02.728Z,12.44
2019-03-16T19:11:51.077Z,12.26
2019-03-16T19:14:17.710Z,12.36
2019-03-16T19:16:44.260Z,12.30
2019-03-16T19:19:10.782Z,12.17
2019-03-16T19:21:37.321Z,12.23
2019-03-16T19:24:03.860Z,12.24
2019-03-16T19:26:30.408Z,12.12
2019-03-16T19:28:56.929Z,12.05
2019-03-16T19:31:23.464Z,11.82
2019-03-16T19:33:52.744Z,11.47
2019-03-16T19:36:20.783Z,11.59
2019-03-16T19:38:47.268Z,11.53
2019-03-16T19:41:13.804Z,11.48
2019-03-16T19:43:43.221Z,11.44
2019-03-16T19:46:09.745Z,11.47
2019-03-16T19:48:36.385Z,11.26
2019-03-16T19:51:04.402Z,11.25
2019-03-16T19:53:31.275Z,11.31
2019-03-16T19:56:02.550Z,11.05
2019-03-16T19:58:29.077Z,11.03
2019-03-16T20:01:00.750Z,11.23
2019-03-16T20:03:27.272Z,11.10
2019-03-16T20:05:56.567Z,11.00
2019-03-16T20:08:24.449Z,10.93
2019-03-16T20:10:50.980Z,11.02
2019-03-16T20:13:17.610Z,11.16
2019-03-16T20:15:45.047Z,11.32
2019-03-16T20:18:11.606Z,11.03
2019-03-16T20:20:43.445Z,10.97
2019-03-16T20:23:11.751Z,10.93
2019-03-16T20:25:41.351Z,10.95
2019-03-16T20:28:09.010Z,10.75
2019-03-16T20:30:35.651Z,10.57
2019-03-16T20:33:04.532Z,10.39
2019-03-16T20:35:32.875Z,10.41
2019-03-16T20:38:05.877Z,10.57
2019-03-16T20:40:32.343Z,10.38
2019-03-16T20:42:58.774Z,10.31
2019-03-16T20:45:25.361Z,10.41
2019-03-16T20:47:51.948Z,10.18
2019-03-16T20:50:19.210Z,10.18
2019-03-16T20:52:46.149Z,10.35
2019-03-16T20:55:14.121Z,10.29
2019-03-16T20:57:40.822Z,10.50
2019-03-16T21:00:13.742Z,10.56
2019-03-16T21:02:40.691Z,10.59
2019-03-16T21:05:08.759Z,10.83
2019-03-16T21:07:35.299Z,10.91
2019-03-16T21:10:01.831Z,10.62
2019-03-16T21:12:29.902Z,10.57
2019-03-16T21:14:56.541Z,10.67
2019-03-16T21:17:23.077Z,9.94
2019-03-16T21:19:49.613Z,9.88
2019-03-16T21:22:16.148Z,10.05
2019-03-16T21:24:42.686Z,10.11
2019-03-16T21:27:09.237Z,10.15
2019-03-16T21:29:35.757Z,10.14
2019-03-16T21:32:02.307Z,9.74
2019-03-16T21:34:28.832Z,10.16
2019-03-16T21:36:55.370Z,10.11
2019-03-16T21:39:21.903Z,9.78
2019-03-16T21:41:48.444Z,9.89
2019-03-16T21:44:14.975Z,9.92
2019-03-16T21:46:44.008Z,9.67
2019-03-16T21:49:10.606Z,9.72
2019-03-16T21:51:37.425Z,9.55
2019-03-16T21:54:04.395Z,9.55
2019-03-16T21:56:30.931Z,9.62
2019-03-16T21:58:57.466Z,9.57
2019-03-16T22:01:24.001Z,9.47
2019-03-16T22:03:50.434Z,9.79
2019-03-16T22:06:16.977Z,9.51
2019-03-16T22:08:43.505Z,9.44
2019-03-16T22:11:10.349Z,9.44
2019-03-16T22:13:36.883Z,9.42
2019-03-16T22:16:03.528Z,9.36
2019-03-16T22:18:30.058Z,9.91
2019-03-16T22:20:56.596Z,9.95
2019-03-16T22:23:23.131Z,9.84
2019-03-16T22:25:49.871Z,9.42
2019-03-16T22:28:16.407Z,9.52
2019-03-16T22:30:42.841Z,9.52
2019-03-16T22:33:09.274Z,9.44
2019-03-16T22:35:36.321Z,9.26
2019-03-16T22:38:02.863Z,9.39
2019-03-16T22:40:29.291Z,9.67
2019-03-16T22:42:55.829Z,9.68
2019-03-16T22:45:24.107Z,9.71
2019-03-16T22:47:50.688Z,9.75
2019-03-16T22:50:18.514Z,9.75
2019-03-16T22:52:48.701Z,9.56
2019-03-16T22:55:37.132Z,9.56
2019-03-16T22:58:03.817Z,9.50
2019-03-16T23:00:46.945Z,9.72
2019-03-16T23:03:13.789Z,9.54
2019-03-16T23:05:45.547Z,9.45
2019-03-16T23:08:13.930Z,9.49
2019-03-16T23:10:40.870Z,9.49
2019-03-16T23:13:07.512Z,9.30
2019-03-16T23:15:34.148Z,9.13
2019-03-16T23:18:00.683Z,9.09
2019-03-16T23:20:27.221Z,9.43
2019-03-16T23:22:53.752Z,9.43
2019-03-16T23:25:20.289Z,9.43
2019-03-16T23:27:46.855Z,9.63
2019-03-16T23:30:13.565Z,9.66
2019-03-16T23:32:40.102Z,9.66
2019-03-16T23:35:07.460Z,9.34
2019-03-16T23:37:33.992Z,9.28
2019-03-16T23:40:00.576Z,9.39
2019-03-16T23:42:28.295Z,9.43
2019-03-16T23:44:54.829Z,9.30
2019-03-16T23:47:21.366Z,9.34
2019-03-16T23:49:47.904Z,9.32
2019-03-16T23:52:14.440Z,9.30
2019-03-16T23:54:41.084Z,9.51
2019-03-16T23:57:07.610Z,9.70
2019-03-16T23:59:34.147Z,9.70
